Time;durP1;ratioP1;P1;durP2;ratioP2;P2;SDS_P1;SDS_P2;PMS_P1;PMS_P2;Temp;Humidity;BMP_temperature;BMP_pressure;BME280_temperature;BME280_humidity;BME280_pressure;Samples;Min_cycle;Max_cycle;Signal;HPM_P1;HPM_P2
2023/06/15 00:00:17;;;;;;;4.47;2.80;;;;;;;16.91;100.00;92972.97;5094762;28;20040;-74
2023/06/15 00:02:43;;;;;;;4.28;2.35;;;;;;;16.90;100.00;92966.97;5108197;28;20052;-74
2023/06/15 00:05:10;;;;;;;3.97;2.50;;;;;;;16.89;100.00;92964.66;5081182;28;20051;-74
2023/06/15 00:07:37;;;;;;;3.53;2.17;;;;;;;16.88;100.00;92961.28;5107967;28;20496;-74
2023/06/15 00:10:05;;;;;;;3.38;1.83;;;;;;;16.87;100.00;92957.13;5081568;28;20043;-74
2023/06/15 00:12:32;;;;;;;3.05;2.05;;;;;;;16.91;100.00;92965.97;5107855;28;20052;-74
2023/06/15 00:15:00;;;;;;;3.22;2.00;;;;;;;16.91;100.00;92960.78;5105023;28;20519;-74
2023/06/15 00:17:29;;;;;;;2.75;1.90;;;;;;;16.93;100.00;92963.88;5107516;28;20142;-74
2023/06/15 00:19:57;;;;;;;3.25;2.00;;;;;;;16.91;100.00;92963.38;5107331;28;20040;-74
2023/06/15 00:22:26;;;;;;;3.90;2.53;;;;;;;16.83;100.00;92956.88;5108107;28;20161;-74
2023/06/15 00:24:52;;;;;;;4.82;2.25;;;;;;;16.88;100.00;92968.28;5106765;28;20515;-74
2023/06/15 00:27:19;;;;;;;3.08;2.20;;;;;;;16.53;100.00;92913.44;5107858;28;20493;-74
2023/06/15 00:29:46;;;;;;;3.53;2.03;;;;;;;16.81;100.00;92958.91;5107427;28;20047;-74
2023/06/15 00:32:14;;;;;;;3.13;2.00;;;;;;;16.81;100.00;92961.50;5107373;28;20043;-74
2023/06/15 00:34:41;;;;;;;3.80;2.58;;;;;;;16.79;100.00;92961.00;5107365;28;20065;-74
2023/06/15 00:37:07;;;;;;;2.97;2.08;;;;;;;16.82;100.00;92964.88;5107635;28;20116;-74
2023/06/15 00:39:34;;;;;;;3.72;2.17;;;;;;;16.72;100.00;92936.31;5106915;28;20039;-74
2023/06/15 00:42:01;;;;;;;3.90;2.00;;;;;;;16.78;100.00;92945.69;5107321;28;20053;-74
2023/06/15 00:44:28;;;;;;;3.10;2.05;;;;;;;16.79;100.00;92949.81;5107590;28;20043;-74
2023/06/15 00:46:55;;;;;;;3.63;2.17;;;;;;;16.74;100.00;92950.59;5106732;28;20052;-74
2023/06/15 00:49:23;;;;;;;7.18;2.70;;;;;;;16.73;100.00;92956.81;5107543;28;20044;-74
2023/06/15 00:51:50;;;;;;;3.05;2.08;;;;;;;16.69;100.00;92951.38;5107247;28;20048;-74
2023/06/15 00:54:21;;;;;;;3.25;2.17;;;;;;;16.63;100.00;92943.81;5107346;28;20079;-74
2023/06/15 00:56:48;;;;;;;2.92;2.10;;;;;;;16.63;100.00;92952.38;5107228;28;20043;-74
2023/06/15 00:59:15;;;;;;;3.13;2.10;;;;;;;16.59;100.00;92948.72;5108540;28;20050;-74
2023/06/15 01:01:42;;;;;;;3.13;2.03;;;;;;;16.54;100.00;92941.69;5111126;28;20506;-74
2023/06/15 01:04:09;;;;;;;3.20;2.15;;;;;;;16.46;100.00;92941.41;5112200;28;20104;-76
2023/06/15 01:06:41;;;;;;;4.95;1.92;;;;;;;16.49;100.00;92943.50;5111447;28;20040;-74
2023/06/15 01:09:10;;;;;;;3.65;2.38;;;;;;;16.38;100.00;92925.31;5111357;28;20048;-74
2023/06/15 01:11:38;;;;;;;3.05;1.90;;;;;;;16.46;100.00;92938.81;5111370;28;20047;-73
2023/06/15 01:14:06;;;;;;;3.88;2.25;;;;;;;16.35;100.00;92923.22;5111601;28;20097;-74
2023/06/15 01:16:38;;;;;;;2.78;2.00;;;;;;;16.39;100.00;92934.63;5111200;28;20112;-74
2023/06/15 01:19:09;;;;;;;3.10;1.95;;;;;;;16.40;100.00;92935.44;5111149;28;20075;-74
2023/06/15 01:21:39;;;;;;;3.42;2.10;;;;;;;16.33;100.00;92924.50;5111338;28;20079;-74
2023/06/15 01:24:21;;;;;;;3.45;2.30;;;;;;;16.30;100.00;92938.75;5110976;28;20056;-74
2023/06/15 01:26:52;;;;;;;2.70;1.75;;;;;;;16.26;100.00;92932.50;5111004;28;20044;-74
2023/06/15 01:29:21;;;;;;;3.55;2.03;;;;;;;16.08;100.00;92906.00;5097825;28;20466;-74
2023/06/15 01:31:49;;;;;;;2.38;1.65;;;;;;;16.22;100.00;92928.84;5110669;28;20039;-74
2023/06/15 01:34:16;;;;;;;3.65;1.80;;;;;;;16.22;100.00;92939.22;5110640;28;20078;-74
2023/06/15 01:36:42;;;;;;;6.93;2.25;;;;;;;16.22;100.00;92929.66;5111351;28;20105;-74
2023/06/15 01:39:09;;;;;;;2.80;2.03;;;;;;;16.24;100.00;92932.00;5110713;28;20104;-74
2023/06/15 01:41:37;;;;;;;2.65;1.55;;;;;;;16.23;100.00;92935.59;5110758;27;20055;-73
2023/06/15 01:44:06;;;;;;;2.58;1.75;;;;;;;16.19;100.00;92921.59;5110984;28;20047;-73
2023/06/15 01:46:34;;;;;;;3.13;1.85;;;;;;;16.22;100.00;92921.06;5098109;28;20097;-73
2023/06/15 01:49:01;;;;;;;3.10;2.05;;;;;;;16.19;100.00;92916.41;5103866;28;20048;-73
2023/06/15 01:51:30;;;;;;;3.97;2.05;;;;;;;16.18;100.00;92913.03;5110819;28;20047;-73
2023/06/15 01:53:57;;;;;;;3.05;1.90;;;;;;;16.14;100.00;92912.75;5110681;28;20051;-73
2023/06/15 01:56:24;;;;;;;2.72;1.67;;;;;;;16.12;100.00;92919.97;5110649;28;20056;-73
2023/06/15 01:58:51;;;;;;;4.30;2.30;;;;;;;16.12;100.00;92914.03;5110303;28;20048;-73
2023/06/15 02:01:19;;;;;;;2.97;1.92;;;;;;;16.10;100.00;92911.69;5110730;28;20180;-73
2023/06/15 02:03:46;;;;;;;3.38;1.95;;;;;;;16.04;100.00;92910.09;5110484;28;20077;-73
2023/06/15 02:06:13;;;;;;;3.78;1.80;;;;;;;16.05;100.00;92914.25;5110837;28;20085;-73
2023/06/15 02:08:39;;;;;;;2.85;1.92;;;;;;;16.04;100.00;92920.47;5099686;28;20044;-73
2023/06/15 02:11:06;;;;;;;3.15;1.92;;;;;;;16.05;100.00;92919.44;5106923;28;20096;-73
2023/06/15 02:13:33;;;;;;;6.10;2.17;;;;;;;16.09;100.00;92920.50;5110494;28;20096;-73
2023/06/15 02:15:59;;;;;;;3.90;2.13;;;;;;;16.10;100.00;92916.09;5110486;28;20493;-73
2023/06/15 02:18:30;;;;;;;2.85;1.80;;;;;;;16.11;100.00;92910.66;5110305;28;20138;-74
2023/06/15 02:20:56;;;;;;;2.65;1.63;;;;;;;16.11;100.00;92907.31;5110896;28;20039;-74
2023/06/15 02:23:24;;;;;;;3.13;1.90;;;;;;;16.12;100.00;92908.84;5110464;28;20040;-73
2023/06/15 02:25:50;;;;;;;3.42;1.70;;;;;;;16.11;100.00;92908.06;5110279;28;20047;-73
2023/06/15 02:28:17;;;;;;;3.95;2.20;;;;;;;16.10;100.00;92909.09;5110006;28;20044;-73
2023/06/15 02:30:44;;;;;;;3.72;2.33;;;;;;;16.08;100.00;92907.78;5107849;28;20048;-73
2023/06/15 02:33:10;;;;;;;4.13;2.05;;;;;;;16.07;100.00;92912.22;5110008;28;20093;-73
2023/06/15 02:35:39;;;;;;;3.85;2.20;;;;;;;16.07;100.00;92909.63;5110088;28;20048;-73
2023/06/15 02:38:06;;;;;;;3.42;2.20;;;;;;;16.09;100.00;92897.19;5110066;28;20473;-74
2023/06/15 02:40:32;;;;;;;3.30;2.05;;;;;;;16.11;100.00;92910.66;5109906;28;20047;-73
2023/06/15 02:43:00;;;;;;;2.92;1.80;;;;;;;16.10;100.00;92910.94;5109597;28;20554;-73
2023/06/15 02:45:27;;;;;;;3.05;1.83;;;;;;;15.99;100.00;92894.53;5109702;28;20040;-73
2023/06/15 02:47:53;;;;;;;2.30;1.50;;;;;;;16.08;100.00;92906.00;5109895;28;20039;-73
2023/06/15 02:50:20;;;;;;;3.05;1.58;;;;;;;16.06;100.00;92902.84;5109859;28;20621;-73
2023/06/15 02:52:49;;;;;;;3.28;1.48;;;;;;;16.06;100.00;92907.28;5109460;28;20044;-73
2023/06/15 02:55:16;;;;;;;2.42;1.60;;;;;;;16.06;100.00;92908.03;5109834;28;20056;-73
2023/06/15 02:57:43;;;;;;;3.38;1.85;;;;;;;16.03;100.00;92901.53;5109096;28;20532;-73
2023/06/15 03:00:13;;;;;;;2.95;1.80;;;;;;;15.86;100.00;92883.56;5109583;28;20492;-73
2023/06/15 03:02:43;;;;;;;3.13;1.98;;;;;;;15.98;100.00;92900.75;5109358;28;20560;-74
2023/06/15 03:05:10;;;;;;;3.25;1.90;;;;;;;15.96;100.00;92897.63;5109430;28;20108;-73
2023/06/15 03:07:37;;;;;;;3.55;2.00;;;;;;;15.63;100.00;92853.63;5109384;28;20747;-74
2023/06/15 03:10:06;;;;;;;3.38;2.05;;;;;;;15.92;100.00;92897.31;5109306;28;20542;-74
2023/06/15 03:12:32;;;;;;;5.40;2.63;;;;;;;15.93;100.00;92901.50;5108903;28;20089;-74
2023/06/15 03:15:01;;;;;;;4.15;2.20;;;;;;;15.94;100.00;92899.69;5109685;28;20112;-74
2023/06/15 03:17:32;;;;;;;6.38;3.35;;;;;;;15.94;100.00;92897.88;5108904;28;20203;-74
2023/06/15 03:19:59;;;;;;;3.38;1.95;;;;;;;15.96;100.00;92897.63;5109460;27;20198;-73
2023/06/15 03:22:25;;;;;;;4.13;2.20;;;;;;;15.96;100.00;92890.63;5109515;28;20047;-74
2023/06/15 03:24:54;;;;;;;6.85;2.75;;;;;;;15.97;100.00;92907.72;5109207;28;20135;-74
2023/06/15 03:27:23;;;;;;;4.07;2.38;;;;;;;15.95;100.00;92902.03;5109131;28;20458;-74
2023/06/15 03:29:51;;;;;;;4.50;2.63;;;;;;;15.95;100.00;92888.28;5109327;27;20044;-73
2023/06/15 03:32:18;;;;;;;3.80;2.40;;;;;;;15.98;100.00;92901.50;5109015;28;20051;-73
2023/06/15 03:34:44;;;;;;;3.50;2.10;;;;;;;15.98;100.00;92893.75;5109078;28;20047;-74
2023/06/15 03:37:11;;;;;;;4.75;2.70;;;;;;;16.01;100.00;92889.88;5109339;28;20424;-73
2023/06/15 03:39:38;;;;;;;5.47;2.65;;;;;;;16.01;100.00;92890.66;5108409;28;20051;-73
2023/06/15 03:42:06;;;;;;;4.10;2.00;;;;;;;16.08;100.00;92892.25;5108285;28;20386;-73
2023/06/15 03:44:34;;;;;;;4.57;2.65;;;;;;;16.12;100.00;92891.47;5108910;28;20126;-73
2023/06/15 03:47:00;;;;;;;5.55;2.72;;;;;;;16.17;100.00;92891.50;5108698;28;20421;-73
2023/06/15 03:49:27;;;;;;;3.75;2.22;;;;;;;16.20;100.00;92892.81;5108816;28;20047;-73
2023/06/15 03:51:54;;;;;;;4.78;3.25;;;;;;;16.23;100.00;92892.31;5108217;28;20509;-73
2023/06/15 03:54:23;;;;;;;3.90;2.40;;;;;;;16.24;100.00;92899.06;5108049;28;20044;-74
2023/06/15 03:56:52;;;;;;;4.03;2.42;;;;;;;16.29;100.00;92900.88;5107456;28;20051;-73
2023/06/15 03:59:19;;;;;;;3.47;2.42;;;;;;;16.34;100.00;92897.56;5096323;28;20048;-73
2023/06/15 04:01:47;;;;;;;5.90;2.92;;;;;;;16.29;100.00;92882.75;5092711;28;20048;-73
2023/06/15 04:04:14;;;;;;;3.90;2.53;;;;;;;16.43;100.00;92903.78;5108197;28;20047;-73
2023/06/15 04:06:46;;;;;;;5.50;2.72;;;;;;;16.50;100.00;92898.38;5107967;28;20039;-73
2023/06/15 04:09:13;;;;;;;4.72;2.55;;;;;;;16.46;100.00;92895.53;5107695;28;20040;-73
2023/06/15 04:11:40;;;;;;;5.75;3.42;;;;;;;16.61;100.00;92904.41;5107985;28;20126;-73
2023/06/15 04:14:07;;;;;;;4.57;3.08;;;;;;;16.64;100.00;92911.66;5107649;28;20454;-73
2023/06/15 04:16:34;;;;;;;8.48;3.50;;;;;;;16.48;100.00;92901.22;5108044;28;20501;-73
2023/06/15 04:19:02;;;;;;;6.07;3.63;;;;;;;16.43;100.00;92904.59;5108088;28;20055;-73
2023/06/15 04:21:29;;;;;;;7.60;3.85;;;;;;;16.43;100.00;92906.38;5108102;28;20466;-73
2023/06/15 04:23:56;;;;;;;7.82;4.18;;;;;;;16.50;100.00;92911.34;5107397;28;20048;-73
2023/06/15 04:26:23;;;;;;;6.75;3.90;;;;;;;16.56;100.00;92915.50;5108274;28;20044;-73
2023/06/15 04:28:49;;;;;;;6.32;3.67;;;;;;;16.51;100.00;92912.91;5090361;28;20457;-73
2023/06/15 04:31:17;;;;;;;7.43;3.75;;;;;;;16.48;100.00;92892.69;5107562;28;20050;-73
2023/06/15 04:33:44;;;;;;;6.18;3.50;;;;;;;16.68;100.00;92918.66;5105437;28;20313;-73
2023/06/15 04:36:13;;;;;;;6.40;4.45;;;;;;;16.70;100.00;92915.81;5087370;28;20040;-74
2023/06/15 04:38:46;;;;;;;9.23;5.28;;;;;;;16.69;100.00;92911.69;5103204;28;20058;-74
2023/06/15 04:41:14;;;;;;;8.43;5.75;;;;;;;16.64;100.00;92915.03;5105353;28;20079;-74
2023/06/15 04:43:41;;;;;;;7.75;4.80;;;;;;;16.71;100.00;92917.38;5107345;28;20136;-73
2023/06/15 04:46:08;;;;;;;9.00;5.25;;;;;;;16.67;100.00;92918.94;5107390;28;20090;-73
2023/06/15 04:48:35;;;;;;;8.68;5.13;;;;;;;16.75;100.00;92915.06;5107387;28;20052;-74
2023/06/15 04:51:01;;;;;;;9.15;5.30;;;;;;;16.69;100.00;92919.47;5107626;28;20443;-73
2023/06/15 04:53:30;;;;;;;13.00;6.65;;;;;;;16.70;100.00;92924.41;5107024;28;20096;-73
2023/06/15 04:55:56;;;;;;;11.68;5.30;;;;;;;16.75;100.00;92923.63;5107508;28;20052;-73
2023/06/15 04:58:23;;;;;;;11.43;5.57;;;;;;;16.84;100.00;92926.50;5107030;28;20101;-73
2023/06/15 05:00:50;;;;;;;15.65;7.63;;;;;;;16.83;100.00;92917.16;5107047;28;20048;-73
2023/06/15 05:03:18;;;;;;;20.13;9.63;;;;;;;16.98;100.00;92931.22;5106985;28;20040;-73
2023/06/15 05:05:45;;;;;;;21.40;9.35;;;;;;;17.05;100.00;92934.38;5107343;28;20051;-73
2023/06/15 05:08:13;;;;;;;15.18;8.55;;;;;;;17.01;100.00;92938.47;5106614;28;20946;-73
2023/06/15 05:10:41;;;;;;;12.52;7.28;;;;;;;17.09;100.00;92936.19;5107453;28;20043;-73
2023/06/15 05:13:08;;;;;;;16.13;8.93;;;;;;;17.18;100.00;92935.69;5107329;28;20104;-73
2023/06/15 05:15:35;;;;;;;15.50;8.00;;;;;;;17.33;100.00;92940.13;5107491;28;20047;-73
2023/06/15 05:18:02;;;;;;;16.13;9.15;;;;;;;17.47;100.00;92941.19;5106356;28;20437;-73
2023/06/15 05:20:28;;;;;;;14.55;9.30;;;;;;;17.57;100.00;92943.00;5107583;28;20104;-74
2023/06/15 05:22:56;;;;;;;13.07;7.95;;;;;;;17.42;100.00;92953.38;5106658;28;20550;-74
2023/06/15 05:25:23;;;;;;;13.77;7.78;;;;;;;17.22;100.00;92955.69;5098135;28;20056;-74
2023/06/15 05:27:51;;;;;;;14.27;8.52;;;;;;;17.14;100.00;92945.81;5106772;28;20044;-74
2023/06/15 05:30:18;;;;;;;13.77;7.88;;;;;;;17.30;100.00;92943.22;5106749;28;20053;-74
2023/06/15 05:32:44;;;;;;;19.23;10.30;;;;;;;17.19;100.00;92940.63;5106963;28;20044;-74
2023/06/15 05:35:11;;;;;;;13.15;9.45;;;;;;;17.19;100.00;92938.03;5107405;28;20075;-74
2023/06/15 05:37:38;;;;;;;20.65;10.07;;;;;;;17.43;100.00;92944.53;5106386;28;20509;-74
2023/06/15 05:40:06;;;;;;;19.80;9.35;;;;;;;17.47;100.00;92941.19;5106332;28;20059;-74
2023/06/15 05:42:33;;;;;;;19.90;9.23;;;;;;;17.41;100.00;92929.22;5107285;28;20047;-73
2023/06/15 05:45:01;;;;;;;13.93;8.73;;;;;;;17.71;100.00;92929.47;5107153;28;20497;-74
2023/06/15 05:47:28;;;;;;;14.45;8.85;;;;;;;17.78;100.00;92948.19;5110947;28;20120;-74
2023/06/15 05:49:54;;;;;;;16.50;9.10;;;;;;;18.13;100.00;92946.63;5110518;28;20089;-73
2023/06/15 05:52:21;;;;;;;15.48;9.20;;;;;;;18.46;100.00;92948.09;5110497;28;20458;-74
2023/06/15 05:54:48;;;;;;;14.15;8.63;;;;;;;18.73;100.00;92949.53;5109725;28;20039;-73
2023/06/15 05:57:15;;;;;;;13.57;9.27;;;;;;;18.88;100.00;92954.69;5111013;28;20097;-73
2023/06/15 05:59:42;;;;;;;13.27;7.60;;;;;;;19.08;100.00;92959.03;5109981;27;20093;-73
2023/06/15 06:02:10;;;;;;;13.00;8.05;;;;;;;19.29;100.00;92960.75;5110488;28;20048;-74
2023/06/15 06:04:37;;;;;;;12.25;8.27;;;;;;;19.45;100.00;92954.41;5110609;28;20101;-74
2023/06/15 06:07:05;;;;;;;11.65;7.32;;;;;;;19.75;100.00;92975.28;5110165;28;20085;-74
2023/06/15 06:09:33;;;;;;;9.23;6.15;;;;;;;19.94;100.00;92961.59;5110111;28;20048;-74
2023/06/15 06:12:00;;;;;;;10.57;6.25;;;;;;;19.80;100.00;92951.78;5110736;28;20131;-73
2023/06/15 06:14:27;;;;;;;10.25;6.57;;;;;;;19.98;100.00;92970.44;5110269;28;20144;-74
2023/06/15 06:16:54;;;;;;;11.02;6.80;;;;;;;19.88;100.00;92956.44;5110467;28;20099;-74
2023/06/15 06:19:23;;;;;;;8.85;6.35;;;;;;;20.09;100.00;92971.16;5109878;28;20052;-73
2023/06/15 06:21:50;;;;;;;10.05;5.82;;;;;;;19.97;100.00;92972.28;5109618;28;20481;-73
2023/06/15 06:24:17;;;;;;;8.90;5.63;;;;;;;19.57;100.00;92961.88;5110627;28;20088;-73
2023/06/15 06:26:44;;;;;;;8.23;5.68;;;;;;;19.90;100.00;92971.78;5110309;28;20048;-73
2023/06/15 06:29:11;;;;;;;8.88;5.75;;;;;;;20.12;100.00;92967.97;5110233;28;20039;-74
2023/06/15 06:31:37;;;;;;;9.02;5.88;;;;;;;20.33;100.00;92973.00;5110372;28;20047;-74
2023/06/15 06:34:04;;;;;;;8.93;5.80;;;;;;;20.53;100.00;92972.78;5109709;28;20043;-73
2023/06/15 06:36:32;;;;;;;7.82;5.43;;;;;;;20.56;100.00;92969.63;5110077;28;20051;-73
2023/06/15 06:38:59;;;;;;;8.60;5.93;;;;;;;20.67;100.00;92974.72;5109985;28;20096;-74
2023/06/15 06:41:26;;;;;;;8.68;5.95;;;;;;;20.68;100.00;92969.25;5109991;28;20455;-73
2023/06/15 06:43:53;;;;;;;8.98;5.45;;;;;;;20.66;100.00;92978.41;5109720;28;20118;-73
2023/06/15 06:46:22;;;;;;;7.55;5.25;;;;;;;20.41;100.00;92982.84;5107458;28;20051;-73
2023/06/15 06:48:49;;;;;;;9.43;5.38;;;;;;;19.78;100.00;92982.56;5106973;28;20054;-73
2023/06/15 06:51:16;;;;;;;7.50;5.25;;;;;;;19.99;100.00;92978.00;5109832;28;20446;-73
2023/06/15 06:53:44;;;;;;;9.77;6.00;;;;;;;20.16;100.00;92971.59;5109476;28;20043;-73
2023/06/15 06:56:10;;;;;;;9.95;6.18;;;;;;;20.21;100.00;92973.38;5109263;28;20558;-73
2023/06/15 06:58:37;;;;;;;9.48;5.47;;;;;;;19.74;100.00;92976.34;5108239;28;20047;-73
2023/06/15 07:01:04;;;;;;;9.82;5.68;;;;;;;20.04;100.00;92977.16;5109805;28;20051;-73
2023/06/15 07:03:31;;;;;;;13.90;6.80;;;;;;;19.62;100.00;92980.06;5108943;28;20138;-73
2023/06/15 07:05:57;;;;;;;9.93;5.85;;;;;;;19.74;100.00;92986.78;5109677;28;20096;-73
2023/06/15 07:08:24;;;;;;;9.40;6.07;;;;;;;19.52;100.00;92984.59;5108871;28;20055;-73
2023/06/15 07:10:52;;;;;;;10.57;7.07;;;;;;;19.71;100.00;92980.28;5109397;28;20143;-73
2023/06/15 07:13:19;;;;;;;9.95;5.88;;;;;;;19.88;100.00;92987.72;5109120;28;20500;-73
2023/06/15 07:15:46;;;;;;;9.25;5.63;;;;;;;20.07;100.00;92978.44;5108996;28;20039;-72
2023/06/15 07:18:14;;;;;;;10.48;6.57;;;;;;;20.35;100.00;92978.72;5108687;28;20108;-72
2023/06/15 07:20:41;;;;;;;11.82;5.72;;;;;;;20.39;100.00;92985.72;5105959;28;20511;-73
2023/06/15 07:23:08;;;;;;;11.60;5.82;;;;;;;20.52;100.00;92986.91;5108739;28;20044;-73
2023/06/15 07:25:34;;;;;;;9.00;5.97;;;;;;;20.70;100.00;92987.22;5108789;28;20088;-73
2023/06/15 07:28:03;;;;;;;10.10;6.22;;;;;;;20.90;100.00;92988.06;5109109;28;20089;-73
2023/06/15 07:30:30;;;;;;;9.25;5.60;;;;;;;21.06;100.00;92988.69;5108487;28;20104;-73
2023/06/15 07:32:56;;;;;;;12.10;6.53;;;;;;;21.27;100.00;92991.00;5108679;28;20039;-73
2023/06/15 07:35:23;;;;;;;9.63;5.55;;;;;;;21.45;100.00;92994.69;5108275;28;20085;-73
2023/06/15 07:37:50;;;;;;;10.88;6.22;;;;;;;21.65;100.00;92985.78;5108577;28;20048;-73
2023/06/15 07:40:17;;;;;;;10.77;5.97;;;;;;;21.85;100.00;92992.56;5108509;28;20056;-73
2023/06/15 07:42:43;;;;;;;10.65;5.70;;;;;;;22.03;100.00;92990.19;5108320;28;20096;-73
2023/06/15 07:45:11;;;;;;;8.43;5.45;;;;;;;22.14;100.00;92999.41;5108755;28;20047;-73
2023/06/15 07:47:38;;;;;;;10.70;6.07;;;;;;;22.30;100.00;92996.53;5108605;28;20044;-73
2023/06/15 07:50:06;;;;;;;12.63;6.35;;;;;;;22.32;100.00;93001.50;5107815;28;20055;-73
2023/06/15 07:52:32;;;;;;;9.80;5.05;;;;;;;22.28;100.00;93003.91;5108472;28;20047;-73
2023/06/15 07:54:59;;;;;;;9.20;5.25;;;;;;;22.33;100.00;93003.03;5108156;28;20055;-73
2023/06/15 07:57:26;;;;;;;10.32;5.68;;;;;;;22.43;100.00;93006.25;5108535;28;20048;-73
2023/06/15 07:59:53;;;;;;;10.13;5.35;;;;;;;21.87;100.00;93003.53;5107786;28;20062;-73
2023/06/15 08:02:21;;;;;;;11.07;5.43;;;;;;;21.79;100.00;93000.78;5080924;28;20077;-73
2023/06/15 08:04:48;;;;;;;9.70;5.43;;;;;;;21.57;100.00;93005.47;5107807;28;20039;-73
2023/06/15 08:07:15;;;;;;;7.70;4.93;;;;;;;21.58;100.00;93007.03;5107902;28;20039;-73
2023/06/15 08:09:43;;;;;;;8.38;4.65;;;;;;;21.71;100.00;93002.19;5107681;28;20047;-73
2023/06/15 08:12:11;;;;;;;8.65;5.55;;;;;;;21.49;100.00;93004.28;5107519;28;20488;-73
2023/06/15 08:14:37;;;;;;;8.88;5.95;;;;;;;21.12;100.00;93000.59;5107056;28;20036;-73
2023/06/15 08:17:05;;;;;;;8.95;4.85;;;;;;;21.08;100.00;93003.00;5107495;28;20047;-72
2023/06/15 08:19:33;;;;;;;9.40;5.88;;;;;;;21.05;100.00;92998.34;5106271;28;20057;-72
2023/06/15 08:22:00;;;;;;;8.93;5.22;;;;;;;21.20;100.00;92999.97;5093578;28;20056;-73
2023/06/15 08:24:27;;;;;;;15.73;7.43;;;;;;;21.05;100.00;93000.16;5108118;28;20047;-73
2023/06/15 08:26:54;;;;;;;13.75;8.07;;;;;;;21.06;100.00;93001.72;5108036;28;20051;-73
2023/06/15 08:29:21;;;;;;;14.10;7.57;;;;;;;21.14;100.00;93005.53;5107792;28;20039;-73
2023/06/15 08:31:47;;;;;;;18.85;8.93;;;;;;;20.62;100.00;93006.88;5107417;28;20048;-72
2023/06/15 08:34:14;;;;;;;15.35;9.23;;;;;;;20.64;100.00;92996.94;5107614;28;20050;-72
2023/06/15 08:36:42;;;;;;;13.93;8.10;;;;;;;20.75;100.00;92997.63;5096910;28;20035;-72
2023/06/15 08:39:09;;;;;;;14.82;8.73;;;;;;;20.63;100.00;93002.44;5107555;28;20100;-73
2023/06/15 08:41:37;;;;;;;15.48;8.88;;;;;;;20.55;100.00;92993.41;5098612;28;20048;-73
2023/06/15 08:44:05;;;;;;;14.40;8.05;;;;;;;20.75;100.00;92986.38;5107380;28;20043;-72
2023/06/15 08:46:32;;;;;;;15.82;8.35;;;;;;;20.89;100.00;92989.91;5107378;28;20052;-72
2023/06/15 08:49:00;;;;;;;13.45;7.13;;;;;;;20.92;100.00;92999.03;5107723;28;20048;-73
2023/06/15 08:51:27;;;;;;;11.63;7.05;;;;;;;21.07;100.00;92998.06;5107852;28;20044;-72
2023/06/15 08:53:56;;;;;;;15.30;7.70;;;;;;;21.21;100.00;93006.75;5107161;28;20614;-73
2023/06/15 08:56:23;;;;;;;11.80;6.90;;;;;;;21.23;100.00;92991.59;5107476;28;20043;-72
2023/06/15 08:58:50;;;;;;;12.77;6.22;;;;;;;21.40;100.00;93003.38;5107311;28;20088;-72
2023/06/15 09:01:21;;;;;;;12.52;6.18;;;;;;;21.36;100.00;93012.84;5107185;28;20100;-72
2023/06/15 09:03:51;;;;;;;6.85;4.72;;;;;;;21.40;100.00;93024.28;5107057;28;20044;-72
2023/06/15 09:06:19;;;;;;;8.30;5.30;;;;;;;21.32;100.00;93033.53;5107687;28;20051;-72
2023/06/15 09:08:46;;;;;;;6.60;4.75;;;;;;;21.23;100.00;93030.75;5107193;28;20073;-72
2023/06/15 09:11:14;;;;;;;7.57;5.22;;;;;;;21.08;100.00;93030.94;5107714;28;20065;-72
2023/06/15 09:13:41;;;;;;;7.55;4.95;;;;;;;21.05;100.00;93032.28;5080276;28;20040;-72
2023/06/15 09:16:09;;;;;;;7.18;4.18;;;;;;;21.00;100.00;93027.13;5100260;28;20041;-72
2023/06/15 09:18:46;;;;;;;7.72;5.03;;;;;;;21.08;100.00;93030.94;5094005;28;20349;-72
2023/06/15 09:21:14;;;;;;;7.32;4.85;;;;;;;21.01;100.00;93020.81;5107337;28;20073;-72
2023/06/15 09:23:42;;;;;;;7.75;4.40;;;;;;;21.05;100.00;93034.88;5111206;28;20461;-72
2023/06/15 09:26:09;;;;;;;7.25;4.95;;;;;;;21.01;100.00;93033.13;5110764;28;20508;-72
2023/06/15 09:28:44;;;;;;;7.80;4.30;;;;;;;20.85;100.00;93035.91;5110751;28;20051;-73
2023/06/15 09:31:11;;;;;;;7.32;4.85;;;;;;;20.67;100.00;93038.16;5110901;28;20397;-73
2023/06/15 09:33:38;;;;;;;5.75;3.90;;;;;;;20.61;100.00;93038.47;5110898;28;20122;-73
2023/06/15 09:36:06;;;;;;;6.05;4.55;;;;;;;20.59;100.00;93037.97;5099666;28;20519;-72
2023/06/15 09:38:40;;;;;;;6.05;3.95;;;;;;;20.51;100.00;93041.97;5092858;28;20040;-73
2023/06/15 09:41:08;;;;;;;6.53;4.40;;;;;;;20.42;100.00;93045.16;5110941;27;20156;-72
2023/06/15 09:43:40;;;;;;;8.18;4.43;;;;;;;20.36;100.00;93041.03;5110679;28;20047;-73
2023/06/15 09:46:11;;;;;;;8.93;5.47;;;;;;;20.32;100.00;93055.69;5110794;28;20454;-72
2023/06/15 09:48:38;;;;;;;9.00;5.00;;;;;;;20.17;100.00;93051.38;5110488;28;20481;-73
2023/06/15 09:51:05;;;;;;;4.45;3.38;;;;;;;20.07;100.00;93047.03;5110662;28;20439;-73
2023/06/15 09:53:32;;;;;;;6.05;3.67;;;;;;;20.07;100.00;93054.84;5110584;28;20067;-73
2023/06/15 09:56:00;;;;;;;5.47;4.20;;;;;;;19.97;100.00;93052.31;5110676;27;20039;-73
2023/06/15 09:58:27;;;;;;;6.90;4.20;;;;;;;19.90;100.00;93053.38;5109773;27;20535;-73
2023/06/15 10:00:57;;;;;;;6.35;3.83;;;;;;;19.87;100.00;93048.69;5110737;28;20104;-74
2023/06/15 10:03:25;;;;;;;6.18;4.28;;;;;;;19.60;100.00;93015.25;5110150;28;20040;-74
2023/06/15 10:05:56;;;;;;;7.47;5.00;;;;;;;19.65;100.00;93030.88;5110570;28;20109;-73
2023/06/15 10:08:25;;;;;;;6.90;4.60;;;;;;;19.65;100.00;93024.88;5110542;28;20039;-74
2023/06/15 10:10:53;;;;;;;5.95;4.70;;;;;;;19.68;100.00;93029.56;5110405;28;20134;-73
2023/06/15 10:13:26;;;;;;;7.13;5.03;;;;;;;19.67;100.00;93020.19;5110315;28;20093;-73
2023/06/15 10:15:57;;;;;;;5.88;4.18;;;;;;;19.74;100.00;93021.44;5084151;28;20458;-73
2023/06/15 10:18:27;;;;;;;7.63;5.22;;;;;;;19.77;100.00;93022.72;5109505;28;20093;-73
2023/06/15 10:20:54;;;;;;;7.68;5.18;;;;;;;19.62;100.00;93003.53;5110127;28;20096;-73
2023/06/15 10:23:26;;;;;;;10.77;5.93;;;;;;;19.81;100.00;93008.06;5109383;28;20050;-73
2023/06/15 10:25:55;;;;;;;8.70;6.22;;;;;;;19.79;100.00;92988.56;5109778;28;20420;-73
2023/06/15 10:28:23;;;;;;;8.60;5.90;;;;;;;19.77;100.00;92984.41;5109857;28;20051;-74
2023/06/15 10:31:02;;;;;;;9.70;6.78;;;;;;;19.83;100.00;92995.56;5109416;28;20039;-74
2023/06/15 10:33:34;;;;;;;8.32;6.38;;;;;;;19.89;100.00;93002.28;5108497;28;20130;-73
2023/06/15 10:36:06;;;;;;;7.78;5.22;;;;;;;19.88;100.00;92997.34;5109976;28;20039;-73
2023/06/15 10:38:40;;;;;;;8.13;5.53;;;;;;;19.83;100.00;92989.56;5095824;28;20048;-73
2023/06/15 10:41:07;;;;;;;10.85;6.00;;;;;;;20.00;100.00;92989.22;5108703;28;20509;-73
2023/06/15 10:43:33;;;;;;;8.63;5.68;;;;;;;20.02;100.00;92982.69;5107352;28;20048;-73
2023/06/15 10:46:02;;;;;;;9.25;6.68;;;;;;;20.24;100.00;92981.44;5089132;28;20040;-73
2023/06/15 10:48:30;;;;;;;9.77;5.80;;;;;;;20.42;100.00;92987.00;5102145;28;20048;-73
2023/06/15 10:51:04;;;;;;;9.93;6.15;;;;;;;20.60;100.00;92985.50;5110060;27;20039;-73
2023/06/15 10:53:37;;;;;;;8.85;5.65;;;;;;;20.68;100.00;92994.53;5109029;28;20088;-73
2023/06/15 10:56:10;;;;;;;9.55;5.47;;;;;;;20.78;100.00;92991.81;5109645;28;20043;-73
2023/06/15 10:58:53;;;;;;;11.18;5.97;;;;;;;20.97;100.00;92996.34;5101628;28;20102;-73
2023/06/15 11:01:23;;;;;;;8.38;5.68;;;;;;;21.08;100.00;92991.78;5109406;28;20051;-73
2023/06/15 11:03:50;;;;;;;9.07;5.55;;;;;;;21.16;100.00;92983.28;5108853;28;20040;-73
2023/06/15 11:06:18;;;;;;;9.38;6.25;;;;;;;21.28;100.00;92993.34;5109787;28;20044;-73
2023/06/15 11:08:48;;;;;;;9.23;5.68;;;;;;;21.34;100.00;92991.44;5108960;28;20621;-73
2023/06/15 11:11:18;;;;;;;7.28;4.70;;;;;;;21.33;100.00;92967.16;5109513;28;20044;-73
2023/06/15 11:13:56;;;;;;;8.60;5.55;;;;;;;21.56;100.00;92985.63;5108980;28;20066;-73
2023/06/15 11:16:27;;;;;;;8.98;5.82;;;;;;;21.77;100.00;92985.38;5109251;28;20051;-73
2023/06/15 11:19:20;;;;;;;12.50;7.82;;;;;;;21.84;100.00;92977.94;5109353;28;20040;-73
2023/06/15 11:21:56;;;;;;;10.82;7.20;;;;;;;21.99;100.00;92974.28;5109143;28;20150;-73
2023/06/15 11:24:24;;;;;;;11.63;7.85;;;;;;;22.11;100.00;92978.28;5109041;28;20051;-73
2023/06/15 11:26:52;;;;;;;10.75;7.45;;;;;;;22.11;100.00;92968.59;5109130;28;20039;-73